Time;durP1;ratioP1;P1;durP2;ratioP2;P2;SDS_P1;SDS_P2;PMS_P1;PMS_P2;Temp;Humidity;BMP_temperature;BMP_pressure;BME280_temperature;BME280_humidity;BME280_pressure;Samples;Min_cycle;Max_cycle;Signal;HPM_P1;HPM_P2
2023/09/23 00:00:37;;;;;;;7.00;6.30;;;12.70;99.90;;;;;;4977130;28;20186;-80
2023/09/23 00:03:04;;;;;;;8.60;6.50;;;12.70;99.90;;;;;;4977032;28;20573;-80
2023/09/23 00:05:32;;;;;;;10.47;5.87;;;12.70;99.90;;;;;;4977331;28;20539;-81
2023/09/23 00:07:58;;;;;;;5.67;4.97;;;12.70;99.90;;;;;;4976153;28;20185;-81
2023/09/23 00:10:24;;;;;;;8.03;5.77;;;12.70;99.90;;;;;;4975658;28;20174;-81
2023/09/23 00:12:50;;;;;;;6.33;5.10;;;12.70;99.90;;;;;;4975532;28;20597;-80
2023/09/23 00:15:16;;;;;;;7.27;5.93;;;12.70;99.90;;;;;;4977820;28;20642;-80
2023/09/23 00:17:45;;;;;;;7.53;6.17;;;12.70;99.90;;;;;;4977611;28;20500;-80
2023/09/23 00:20:16;;;;;;;5.93;5.33;;;12.60;99.90;;;;;;4978179;28;20171;-80
2023/09/23 00:22:45;;;;;;;6.77;4.83;;;12.60;99.90;;;;;;4976261;28;20198;-80
2023/09/23 00:25:11;;;;;;;6.07;4.50;;;12.60;99.90;;;;;;4977699;28;20608;-80
2023/09/23 00:27:36;;;;;;;8.27;4.67;;;12.60;99.90;;;;;;4978725;28;20221;-80
2023/09/23 00:30:05;;;;;;;6.47;4.23;;;12.60;99.90;;;;;;4977282;28;20210;-80
2023/09/23 00:32:32;;;;;;;4.80;4.00;;;12.60;99.90;;;;;;4977324;28;20202;-80
2023/09/23 00:34:59;;;;;;;5.23;3.63;;;12.50;99.90;;;;;;4977634;28;20167;-80
2023/09/23 00:37:24;;;;;;;4.17;3.77;;;12.60;99.90;;;;;;4975685;28;20710;-82
2023/09/23 00:39:50;;;;;;;3.90;3.17;;;12.60;99.90;;;;;;4976027;28;20269;-80
2023/09/23 00:42:20;;;;;;;4.20;3.60;;;12.60;99.90;;;;;;4977316;28;20194;-80
2023/09/23 00:44:46;;;;;;;4.40;3.23;;;12.50;99.90;;;;;;4977540;28;20214;-80
2023/09/23 00:47:13;;;;;;;5.10;3.23;;;12.50;99.90;;;;;;4980700;28;20272;-80
2023/09/23 00:49:41;;;;;;;4.17;2.60;;;12.50;99.90;;;;;;4979587;28;20206;-81
2023/09/23 00:52:08;;;;;;;3.43;2.57;;;12.50;99.90;;;;;;4981078;28;20222;-80
2023/09/23 00:54:49;;;;;;;4.47;2.33;;;12.50;99.90;;;;;;4980656;28;20170;-80
2023/09/23 00:57:17;;;;;;;3.07;2.50;;;12.50;99.90;;;;;;4979552;28;20201;-80
2023/09/23 00:59:43;;;;;;;5.20;2.67;;;12.40;99.90;;;;;;4980464;28;20568;-81
2023/09/23 01:02:13;;;;;;;7.00;3.50;;;12.40;99.90;;;;;;4980448;28;20205;-80
2023/09/23 01:04:39;;;;;;;6.67;4.00;;;12.40;99.90;;;;;;4979085;28;20663;-80
2023/09/23 01:07:04;;;;;;;8.60;4.07;;;12.40;99.90;;;;;;4979260;28;20201;-81
2023/09/23 01:09:33;;;;;;;5.93;4.47;;;12.40;99.90;;;;;;4979024;28;20182;-80
2023/09/23 01:12:00;;;;;;;6.43;4.97;;;12.30;99.90;;;;;;4980314;28;20196;-80
2023/09/23 01:14:25;;;;;;;7.67;5.00;;;12.30;99.90;;;;;;4980542;28;20213;-80
2023/09/23 01:16:52;;;;;;;5.87;4.40;;;12.30;99.90;;;;;;4978735;28;20650;-81
2023/09/23 01:19:25;;;;;;;6.47;4.60;;;12.30;99.90;;;;;;4980283;28;20170;-81
2023/09/23 01:21:51;;;;;;;6.70;4.40;;;12.10;99.90;;;;;;4979948;28;20190;-80
2023/09/23 01:27:39;;;;;;;7.20;4.87;;;12.20;99.90;;;;;;4980321;28;20229;-80
2023/09/23 01:30:05;;;;;;;5.10;4.20;;;12.20;99.90;;;;;;4980163;28;20543;-81
2023/09/23 01:32:46;;;;;;;6.43;4.73;;;12.20;99.90;;;;;;4979546;28;20202;-80
2023/09/23 01:35:16;;;;;;;7.07;4.10;;;12.20;99.90;;;;;;4979627;28;20158;-80
2023/09/23 01:37:44;;;;;;;9.03;4.17;;;12.20;99.90;;;;;;4978001;28;20217;-80
2023/09/23 01:40:19;;;;;;;10.73;4.40;;;12.20;99.90;;;;;;4978780;28;20269;-81
2023/09/23 01:42:46;;;;;;;9.10;4.20;;;12.20;99.90;;;;;;4977781;28;20202;-80
2023/09/23 01:45:13;;;;;;;8.43;4.00;;;12.20;99.90;;;;;;4978020;28;20523;-80
2023/09/23 01:47:42;;;;;;;6.43;4.20;;;12.20;99.90;;;;;;4979967;28;20187;-80
2023/09/23 01:50:11;;;;;;;4.90;4.03;;;12.20;99.90;;;;;;4978777;28;20205;-80
2023/09/23 01:52:40;;;;;;;9.03;4.80;;;12.20;99.90;;;;;;4979748;28;20205;-81
2023/09/23 01:55:07;;;;;;;10.57;4.50;;;12.20;99.90;;;;;;4979103;28;20170;-80
2023/09/23 01:57:36;;;;;;;6.37;4.87;;;12.20;99.90;;;;;;4977629;28;20202;-80
2023/09/23 02:00:04;;;;;;;7.70;5.37;;;12.20;99.90;;;;;;4977243;28;20186;-80
2023/09/23 02:02:30;;;;;;;10.03;5.13;;;12.20;99.90;;;;;;4978195;28;20194;-80
2023/09/23 02:04:56;;;;;;;6.93;4.77;;;12.10;99.90;;;;;;4978268;28;20214;-80
2023/09/23 02:07:22;;;;;;;8.67;5.00;;;12.20;99.90;;;;;;4979829;28;20186;-80
2023/09/23 02:09:47;;;;;;;11.60;5.77;;;12.10;99.90;;;;;;4977799;28;20249;-81
2023/09/23 02:12:14;;;;;;;6.27;5.47;;;12.10;99.90;;;;;;4977778;28;20198;-80
2023/09/23 02:14:40;;;;;;;7.90;4.77;;;12.10;99.90;;;;;;4977653;28;20178;-80
2023/09/23 02:17:06;;;;;;;6.57;4.70;;;12.10;99.90;;;;;;4978828;28;20189;-80
2023/09/23 02:19:31;;;;;;;11.53;5.30;;;12.00;99.90;;;;;;4979093;28;20497;-81
2023/09/23 02:21:57;;;;;;;7.17;4.63;;;12.00;99.90;;;;;;4977953;28;20206;-81
2023/09/23 02:24:23;;;;;;;6.97;4.73;;;12.00;99.90;;;;;;4977707;28;20182;-81
2023/09/23 02:26:51;;;;;;;7.33;4.90;;;12.00;99.90;;;;;;4978014;28;20214;-81
2023/09/23 02:29:17;;;;;;;6.87;4.77;;;12.00;99.90;;;;;;4979617;28;20182;-81
2023/09/23 02:31:49;;;;;;;5.77;4.60;;;12.00;99.90;;;;;;4978488;28;20202;-80
2023/09/23 02:34:16;;;;;;;9.60;4.23;;;12.00;99.90;;;;;;4979856;28;20170;-81
2023/09/23 02:36:45;;;;;;;6.53;4.30;;;12.00;99.90;;;;;;4979541;28;20284;-81
2023/09/23 02:39:20;;;;;;;6.13;4.13;;;12.00;99.90;;;;;;4979153;28;20255;-80
2023/09/23 02:41:47;;;;;;;4.30;3.90;;;11.80;99.90;;;;;;4979229;28;20252;-80
2023/09/23 02:44:14;;;;;;;6.03;4.23;;;11.90;99.90;;;;;;4977391;28;20178;-81
2023/09/23 02:46:41;;;;;;;7.30;3.73;;;11.90;99.90;;;;;;4979459;28;20285;-81
2023/09/23 02:49:09;;;;;;;7.30;3.87;;;11.90;99.90;;;;;;4979412;28;20301;-81
2023/09/23 02:51:36;;;;;;;6.13;3.70;;;11.90;99.90;;;;;;4977025;28;20745;-81
2023/09/23 02:54:04;;;;;;;4.13;3.73;;;12.10;99.90;;;;;;4976924;28;20179;-81
2023/09/23 02:56:30;;;;;;;5.73;3.63;;;11.90;99.90;;;;;;4977121;28;20185;-80
2023/09/23 02:58:57;;;;;;;5.77;3.60;;;11.90;99.90;;;;;;4977820;28;20225;-81
2023/09/23 03:01:25;;;;;;;4.80;3.07;;;11.90;99.90;;;;;;4978174;28;20266;-81
2023/09/23 03:03:51;;;;;;;3.90;2.77;;;11.70;99.90;;;;;;4977488;28;20269;-81
2023/09/23 03:06:18;;;;;;;6.30;3.47;;;11.90;99.90;;;;;;4976448;28;20209;-81
2023/09/23 03:08:47;;;;;;;9.00;3.37;;;11.90;99.90;;;;;;4976174;28;20181;-81
2023/09/23 03:11:17;;;;;;;6.43;3.10;;;11.90;99.90;;;;;;4976728;28;20202;-81
2023/09/23 03:13:44;;;;;;;8.77;3.30;;;11.90;99.90;;;;;;4978459;28;20553;-81
2023/09/23 03:16:12;;;;;;;9.87;3.27;;;11.90;99.90;;;;;;4976672;28;20185;-80
2023/09/23 03:18:59;;;;;;;4.83;2.70;;;11.90;99.90;;;;;;4977694;28;20170;-81
2023/09/23 03:21:25;;;;;;;5.27;2.80;;;11.90;99.90;;;;;;4976001;28;20309;-81
2023/09/23 03:23:51;;;;;;;6.17;3.13;;;11.90;99.90;;;;;;4978064;28;20587;-80
2023/09/23 03:26:18;;;;;;;5.77;2.53;;;11.90;99.90;;;;;;4977042;28;20210;-80
2023/09/23 03:28:44;;;;;;;6.37;2.63;;;11.90;99.90;;;;;;4978653;28;20171;-81
2023/09/23 03:31:10;;;;;;;8.77;2.40;;;11.90;99.90;;;;;;4977265;28;20202;-81
2023/09/23 03:33:37;;;;;;;6.13;2.40;;;11.90;99.90;;;;;;4979230;28;20650;-81
2023/09/23 03:36:02;;;;;;;5.83;2.10;;;11.90;99.90;;;;;;4978725;28;20190;-80
2023/09/23 03:38:28;;;;;;;4.10;1.90;;;11.90;99.90;;;;;;4977906;28;20205;-80
2023/09/23 03:41:02;;;;;;;5.57;2.27;;;11.90;99.90;;;;;;4976496;28;20241;-81
2023/09/23 03:43:29;;;;;;;4.17;2.17;;;11.90;99.90;;;;;;4975589;28;20174;-81
2023/09/23 03:45:55;;;;;;;6.23;2.30;;;12.00;99.90;;;;;;4976416;28;20429;-81
2023/09/23 03:48:21;;;;;;;2.90;1.57;;;11.90;99.90;;;;;;4977752;28;20526;-81
2023/09/23 03:50:53;;;;;;;7.10;2.60;;;11.90;99.90;;;;;;4975752;28;20273;-81
2023/09/23 03:53:22;;;;;;;5.90;2.30;;;12.00;99.90;;;;;;4977594;28;20166;-80
2023/09/23 03:55:49;;;;;;;5.07;1.97;;;11.90;99.90;;;;;;4977608;28;20178;-81
2023/09/23 03:58:17;;;;;;;4.07;1.63;;;11.90;99.90;;;;;;4979032;28;20175;-81
2023/09/23 04:00:43;;;;;;;6.33;1.80;;;11.90;99.90;;;;;;4976790;28;20190;-81
2023/09/23 04:03:10;;;;;;;3.90;1.67;;;11.90;99.90;;;;;;4976443;28;20288;-81
2023/09/23 04:05:36;;;;;;;2.70;1.43;;;11.90;99.90;;;;;;4977986;28;20541;-81
2023/09/23 04:08:02;;;;;;;4.73;1.60;;;11.90;99.90;;;;;;4976017;28;20197;-81
2023/09/23 04:10:28;;;;;;;4.27;1.77;;;11.80;99.90;;;;;;4975609;28;20257;-81
2023/09/23 04:12:54;;;;;;;10.23;1.80;;;11.80;99.90;;;;;;4976949;28;20201;-81
2023/09/23 04:15:24;;;;;;;9.50;1.80;;;11.80;99.90;;;;;;4977136;28;20179;-81
2023/09/23 04:17:50;;;;;;;4.83;1.40;;;11.90;99.90;;;;;;4977121;28;20237;-81
2023/09/23 04:20:16;;;;;;;5.10;1.63;;;11.80;99.90;;;;;;4982102;28;20182;-81
2023/09/23 04:22:42;;;;;;;5.80;1.57;;;11.80;99.90;;;;;;4981569;28;20194;-81
2023/09/23 04:25:10;;;;;;;4.20;1.53;;;11.80;99.90;;;;;;4981358;28;20182;-80
2023/09/23 04:27:37;;;;;;;3.77;1.43;;;11.80;99.90;;;;;;4981063;28;20206;-81
2023/09/23 04:30:11;;;;;;;7.50;1.90;;;11.80;99.90;;;;;;4981525;28;20655;-81
2023/09/23 04:32:38;;;;;;;4.03;1.50;;;11.80;99.90;;;;;;4981557;28;20190;-80
2023/09/23 04:35:08;;;;;;;4.27;1.20;;;11.80;99.90;;;;;;4980935;28;20232;-81
2023/09/23 04:37:37;;;;;;;4.40;1.30;;;11.80;99.90;;;;;;4979324;28;20623;-80
2023/09/23 04:40:11;;;;;;;6.77;1.57;;;11.70;99.90;;;;;;4980542;28;20242;-81
2023/09/23 04:42:39;;;;;;;10.07;1.57;;;11.70;99.90;;;;;;4979674;28;20212;-81
2023/09/23 04:45:05;;;;;;;4.83;1.43;;;11.70;99.90;;;;;;4979553;28;20511;-81
2023/09/23 04:47:30;;;;;;;4.93;1.40;;;11.70;99.90;;;;;;4979345;28;20216;-81
2023/09/23 04:49:58;;;;;;;3.83;1.40;;;11.70;99.90;;;;;;4980837;28;20261;-81
2023/09/23 04:52:24;;;;;;;8.07;1.47;;;11.70;99.90;;;;;;4980589;28;20193;-81
2023/09/23 04:54:53;;;;;;;4.00;1.50;;;11.70;99.90;;;;;;4980923;28;20549;-81
2023/09/23 04:57:19;;;;;;;8.47;1.77;;;11.70;99.90;;;;;;4979407;28;20269;-81
2023/09/23 04:59:44;;;;;;;2.90;1.43;;;11.70;99.90;;;;;;4979502;28;20274;-81
2023/09/23 05:02:16;;;;;;;6.47;1.77;;;11.70;99.90;;;;;;4978634;28;20201;-81
2023/09/23 05:04:44;;;;;;;4.30;1.67;;;11.70;99.90;;;;;;4980494;28;20250;-81
2023/09/23 05:07:11;;;;;;;6.70;1.57;;;11.70;99.90;;;;;;4980800;28;20198;-81
2023/09/23 05:09:37;;;;;;;9.10;1.63;;;11.70;99.90;;;;;;4979998;28;20178;-81
2023/09/23 05:12:03;;;;;;;5.30;1.20;;;11.60;99.90;;;;;;4980099;28;20194;-81
2023/09/23 05:14:28;;;;;;;7.17;1.47;;;11.70;99.90;;;;;;4978930;28;20597;-81
2023/09/23 05:16:54;;;;;;;5.90;1.70;;;11.90;99.90;;;;;;4980930;28;20265;-81
2023/09/23 05:19:19;;;;;;;6.17;1.50;;;11.70;99.90;;;;;;4980121;28;20220;-81
2023/09/23 05:21:46;;;;;;;2.30;1.20;;;11.70;99.90;;;;;;4981163;28;20562;-81
2023/09/23 05:24:12;;;;;;;8.03;1.73;;;11.70;99.90;;;;;;4978912;28;20631;-81
2023/09/23 05:26:40;;;;;;;8.03;1.67;;;11.70;99.90;;;;;;4978447;28;20213;-80
2023/09/23 05:29:06;;;;;;;5.63;1.60;;;11.70;99.90;;;;;;4978767;28;20181;-81
2023/09/23 05:31:31;;;;;;;4.37;1.40;;;11.70;99.90;;;;;;4978010;28;20195;-81
2023/09/23 05:33:57;;;;;;;3.83;1.60;;;11.70;99.90;;;;;;4980729;28;20170;-81
2023/09/23 05:36:22;;;;;;;5.43;1.20;;;11.70;99.90;;;;;;4981410;28;20178;-81
2023/09/23 05:38:48;;;;;;;5.23;1.70;;;11.70;99.90;;;;;;4980357;28;20202;-81
2023/09/23 05:41:14;;;;;;;7.60;2.20;;;11.70;99.90;;;;;;4981318;28;20202;-81
2023/09/23 05:43:39;;;;;;;7.17;1.73;;;11.70;99.90;;;;;;4979745;28;20177;-81
2023/09/23 05:46:05;;;;;;;3.67;1.73;;;11.70;99.90;;;;;;4980415;28;20684;-81
2023/09/23 05:48:32;;;;;;;3.80;1.40;;;11.70;99.90;;;;;;4980438;28;20175;-81
2023/09/23 05:51:08;;;;;;;7.57;2.63;;;11.70;99.90;;;;;;4979900;28;20292;-83
2023/09/23 05:53:33;;;;;;;5.43;1.87;;;11.70;99.90;;;;;;4979323;28;20178;-83
2023/09/23 05:56:00;;;;;;;5.97;1.63;;;11.70;99.90;;;;;;4978097;28;20197;-85
2023/09/23 05:58:26;;;;;;;7.40;1.73;;;11.70;99.90;;;;;;4979788;28;20185;-85
2023/09/23 06:00:52;;;;;;;4.10;1.87;;;11.70;99.90;;;;;;4979063;28;20245;-85
2023/09/23 06:03:18;;;;;;;4.40;1.73;;;11.70;99.90;;;;;;4978617;28;20245;-85
2023/09/23 06:05:44;;;;;;;10.53;1.80;;;11.70;99.90;;;;;;4978902;28;20189;-85
2023/09/23 06:08:10;;;;;;;7.03;1.47;;;11.70;99.90;;;;;;4980632;28;20627;-85
2023/09/23 06:10:36;;;;;;;5.67;1.70;;;11.70;99.90;;;;;;4977864;28;20650;-85
2023/09/23 06:13:03;;;;;;;5.23;1.90;;;11.70;99.90;;;;;;4977126;28;20212;-86
2023/09/23 06:15:28;;;;;;;2.67;1.73;;;11.70;99.90;;;;;;4976946;28;20182;-85
2023/09/23 06:17:54;;;;;;;5.57;2.00;;;11.70;99.90;;;;;;4976996;28;20182;-86
2023/09/23 06:20:20;;;;;;;5.10;1.93;;;11.70;99.90;;;;;;4976957;28;20186;-85
2023/09/23 06:22:46;;;;;;;4.60;1.80;;;11.70;99.90;;;;;;4977274;28;20198;-85
2023/09/23 06:25:12;;;;;;;5.77;1.53;;;11.80;99.90;;;;;;4977972;28;20178;-84
2023/09/23 06:27:37;;;;;;;4.63;1.87;;;11.80;99.90;;;;;;4976689;28;20216;-85
2023/09/23 06:30:05;;;;;;;6.00;1.97;;;11.80;99.90;;;;;;4977534;28;20268;-85
2023/09/23 06:32:32;;;;;;;8.53;2.10;;;11.80;99.90;;;;;;4979256;28;20240;-84
2023/09/23 06:34:57;;;;;;;6.77;2.03;;;11.80;99.90;;;;;;4978309;28;20186;-85
2023/09/23 06:37:23;;;;;;;5.47;2.23;;;11.80;99.90;;;;;;4976682;28;20186;-85
2023/09/23 06:39:49;;;;;;;2.60;1.70;;;11.80;99.90;;;;;;4976666;28;20273;-85
2023/09/23 06:42:15;;;;;;;5.30;2.03;;;11.80;99.90;;;;;;4977153;28;20205;-85
2023/09/23 06:44:42;;;;;;;2.93;1.53;;;11.90;99.90;;;;;;4976361;28;20181;-85
2023/09/23 06:47:08;;;;;;;5.17;2.00;;;11.90;99.90;;;;;;4976808;28;20209;-85
2023/09/23 06:49:34;;;;;;;5.50;1.80;;;12.10;99.90;;;;;;4976496;28;20261;-85
2023/09/23 06:52:01;;;;;;;9.20;2.20;;;12.00;99.90;;;;;;4976733;28;20249;-85
2023/09/23 06:54:26;;;;;;;7.77;2.10;;;12.10;99.90;;;;;;4977099;28;20178;-85
2023/09/23 06:56:55;;;;;;;7.43;1.90;;;12.10;99.90;;;;;;4978315;28;20216;-85
2023/09/23 06:59:21;;;;;;;5.03;1.60;;;12.20;99.90;;;;;;4976939;28;20182;-85
2023/09/23 07:01:46;;;;;;;4.87;2.20;;;12.20;99.90;;;;;;4980135;28;20208;-83
2023/09/23 07:04:12;;;;;;;5.53;1.80;;;12.30;99.90;;;;;;4981946;28;20226;-83
2023/09/23 07:06:38;;;;;;;6.10;1.90;;;12.30;99.90;;;;;;4981599;28;20226;-83
2023/09/23 07:09:05;;;;;;;6.03;1.90;;;12.40;99.90;;;;;;4979882;28;20233;-82
2023/09/23 07:11:31;;;;;;;4.50;1.60;;;12.30;99.90;;;;;;4979384;28;20194;-83
2023/09/23 07:13:58;;;;;;;5.57;2.10;;;12.40;99.90;;;;;;4980773;28;20229;-82
2023/09/23 07:16:25;;;;;;;7.53;2.00;;;12.40;99.90;;;;;;4979233;28;20181;-82
2023/09/23 07:18:51;;;;;;;5.67;1.77;;;12.40;99.90;;;;;;4981884;28;20546;-82
2023/09/23 07:21:16;;;;;;;5.50;2.13;;;12.40;99.90;;;;;;4980604;28;20206;-84
2023/09/23 07:23:42;;;;;;;4.70;1.70;;;12.40;99.90;;;;;;4978250;28;20186;-83
2023/09/23 07:26:07;;;;;;;3.57;1.90;;;12.50;99.90;;;;;;4980535;28;20205;-84
2023/09/23 07:28:33;;;;;;;4.27;1.80;;;12.50;99.90;;;;;;4980144;28;20650;-84
2023/09/23 07:30:59;;;;;;;3.30;1.70;;;12.50;99.90;;;;;;4978256;28;20626;-85
2023/09/23 07:33:24;;;;;;;7.80;2.10;;;12.60;99.90;;;;;;4979445;28;20348;-84
2023/09/23 07:35:50;;;;;;;6.23;1.70;;;12.60;99.90;;;;;;4979023;28;20301;-83
2023/09/23 07:38:15;;;;;;;5.20;1.93;;;12.60;99.90;;;;;;4979001;28;20232;-84
2023/09/23 07:40:41;;;;;;;3.77;1.67;;;12.70;99.90;;;;;;4978534;28;20178;-83
2023/09/23 07:43:07;;;;;;;5.30;1.90;;;12.70;99.90;;;;;;4980896;28;20197;-84
2023/09/23 07:45:33;;;;;;;7.90;1.97;;;12.70;99.90;;;;;;4980610;28;20174;-83
2023/09/23 07:47:59;;;;;;;4.53;1.80;;;12.80;99.90;;;;;;4978966;28;20300;-84
2023/09/23 07:50:24;;;;;;;5.93;2.10;;;12.80;99.90;;;;;;4978730;28;20182;-84
2023/09/23 07:52:50;;;;;;;5.77;2.00;;;12.90;99.90;;;;;;4978688;28;20626;-84
2023/09/23 07:55:16;;;;;;;6.93;2.20;;;12.90;99.90;;;;;;4984691;28;20185;-84
2023/09/23 07:57:42;;;;;;;5.67;2.37;;;13.00;99.90;;;;;;4984756;28;20182;-83
2023/09/23 08:00:11;;;;;;;7.53;2.03;;;13.00;99.90;;;;;;4984942;28;20321;-84
2023/09/23 08:02:37;;;;;;;5.30;1.83;;;13.10;99.90;;;;;;4984534;28;20252;-84
2023/09/23 08:05:03;;;;;;;8.80;1.80;;;13.10;99.90;;;;;;4983757;28;20232;-84
2023/09/23 08:07:32;;;;;;;4.90;2.00;;;13.20;99.90;;;;;;4987008;28;20208;-84
2023/09/23 08:09:58;;;;;;;3.93;1.57;;;13.30;99.90;;;;;;4985103;28;20520;-83
2023/09/23 08:12:24;;;;;;;7.57;2.47;;;13.20;99.90;;;;;;4984711;28;20198;-84
2023/09/23 08:14:51;;;;;;;9.57;1.70;;;13.20;99.90;;;;;;4985181;28;20174;-84
2023/09/23 08:17:17;;;;;;;5.93;1.80;;;13.20;99.90;;;;;;4983718;28;20193;-81
2023/09/23 08:19:44;;;;;;;6.40;1.70;;;13.30;99.90;;;;;;4984135;28;20170;-82
2023/09/23 08:22:09;;;;;;;7.87;1.97;;;13.30;99.90;;;;;;4982479;28;20198;-82
2023/09/23 08:24:35;;;;;;;6.70;1.80;;;13.30;99.90;;;;;;4984103;28;20677;-82
2023/09/23 08:27:03;;;;;;;8.13;1.90;;;13.40;99.90;;;;;;4981854;28;20289;-81
2023/09/23 08:29:29;;;;;;;6.03;2.13;;;13.40;99.90;;;;;;4982141;28;20269;-82
2023/09/23 08:31:55;;;;;;;3.37;1.60;;;13.40;99.90;;;;;;4983999;28;20194;-81
2023/09/23 08:34:20;;;;;;;10.23;1.70;;;13.50;99.90;;;;;;4982530;28;20204;-81
2023/09/23 08:36:46;;;;;;;6.83;2.20;;;13.50;99.90;;;;;;4981140;28;20186;-82
2023/09/23 08:39:12;;;;;;;5.10;1.97;;;13.70;99.90;;;;;;4982213;28;20201;-81
2023/09/23 08:41:38;;;;;;;8.97;2.17;;;13.70;99.90;;;;;;4983884;28;20230;-82
2023/09/23 08:44:08;;;;;;;4.63;1.83;;;13.50;99.90;;;;;;4982034;28;20645;-82
2023/09/23 08:46:33;;;;;;;7.10;2.00;;;13.70;99.90;;;;;;4967993;28;20211;-82
2023/09/23 08:48:59;;;;;;;5.43;2.37;;;13.80;99.90;;;;;;4963541;28;20242;-81
2023/09/23 08:51:27;;;;;;;5.40;1.87;;;13.90;99.90;;;;;;4964098;28;20197;-82
2023/09/23 08:53:54;;;;;;;5.93;2.17;;;13.90;99.90;;;;;;4964603;28;20230;-82
2023/09/23 08:56:20;;;;;;;6.60;2.30;;;13.90;99.90;;;;;;4975067;28;20209;-81
2023/09/23 08:58:48;;;;;;;3.23;1.80;;;14.00;99.90;;;;;;4983700;28;20186;-81
2023/09/23 09:01:14;;;;;;;6.10;2.33;;;13.90;99.90;;;;;;4981546;28;20323;-81
2023/09/23 09:03:39;;;;;;;7.87;2.17;;;14.20;99.90;;;;;;4981746;28;20246;-82
2023/09/23 09:06:18;;;;;;;7.33;2.50;;;14.30;99.90;;;;;;4976518;28;20249;-80
2023/09/23 09:08:44;;;;;;;8.53;2.20;;;14.40;99.90;;;;;;4979496;28;20188;-83
2023/09/23 09:11:10;;;;;;;6.77;2.87;;;14.40;99.90;;;;;;4980718;28;20174;-80
2023/09/23 09:13:36;;;;;;;6.87;2.50;;;14.50;99.90;;;;;;4980009;28;20167;-81
2023/09/23 09:16:06;;;;;;;7.70;2.00;;;14.60;99.90;;;;;;4977470;28;20665;-80
2023/09/23 09:18:32;;;;;;;5.03;2.10;;;14.70;99.90;;;;;;4980054;28;20634;-81
2023/09/23 09:20:58;;;;;;;4.80;2.17;;;14.70;99.90;;;;;;4979921;28;20637;-82
2023/09/23 09:23:29;;;;;;;4.83;2.10;;;14.80;99.90;;;;;;4978237;28;20186;-80
2023/09/23 09:25:55;;;;;;;7.13;1.80;;;14.80;99.90;;;;;;4976813;28;20197;-80
2023/09/23 09:28:20;;;;;;;4.27;2.33;;;14.90;99.90;;;;;;4979338;28;20170;-80
2023/09/23 09:30:57;;;;;;;7.60;2.40;;;14.90;99.90;;;;;;4978016;28;20226;-82
2023/09/23 09:33:26;;;;;;;5.27;2.43;;;15.00;99.90;;;;;;4979453;28;20174;-82
2023/09/23 09:35:57;;;;;;;6.80;2.53;;;15.00;99.90;;;;;;4972222;28;20190;-81
2023/09/23 09:38:25;;;;;;;7.27;1.93;;;15.00;99.90;;;;;;4960038;29;20218;-81
2023/09/23 09:41:00;;;;;;;6.10;2.00;;;15.00;99.90;;;;;;4958370;28;20203;-80
2023/09/23 09:43:26;;;;;;;4.17;1.40;;;15.20;99.90;;;;;;4959290;29;20225;-82
2023/09/23 09:45:54;;;;;;;3.03;1.53;;;14.90;99.90;;;;;;4965324;28;20265;-82
2023/09/23 09:48:22;;;;;;;2.77;1.90;;;15.00;99.90;;;;;;4975969;28;20186;-82
2023/09/23 09:50:50;;;;;;;2.80;1.50;;;15.00;99.90;;;;;;4979386;28;20170;-80
2023/09/23 09:53:18;;;;;;;8.13;1.60;;;15.20;99.90;;;;;;4977886;28;20682;-82
2023/09/23 09:55:44;;;;;;;6.87;1.77;;;15.30;99.90;;;;;;4977626;28;20213;-80
2023/09/23 09:58:11;;;;;;;4.93;1.90;;;15.30;99.90;;;;;;4976735;28;20162;-79
2023/09/23 10:00:43;;;;;;;4.57;1.40;;;15.30;99.90;;;;;;4975816;28;20186;-78
2023/09/23 10:03:12;;;;;;;2.93;1.10;;;15.20;99.90;;;;;;4992728;28;20201;-77
2023/09/23 10:05:47;;;;;;;5.97;1.50;;;15.20;99.90;;;;;;4995547;28;20603;-77
2023/09/23 10:08:15;;;;;;;4.30;1.47;;;15.20;99.90;;;;;;4991026;28;20175;-80
2023/09/23 10:10:48;;;;;;;4.83;1.50;;;15.20;99.90;;;;;;4974450;28;20174;-78
2023/09/23 10:13:23;;;;;;;3.83;1.50;;;15.30;99.90;;;;;;4975807;28;20237;-78
2023/09/23 10:15:50;;;;;;;5.07;1.33;;;15.20;99.90;;;;;;4974444;28;20261;-77
2023/09/23 10:18:19;;;;;;;5.03;1.40;;;15.30;99.90;;;;;;4974786;28;20178;-79
2023/09/23 10:20:56;;;;;;;5.67;1.50;;;15.40;99.90;;;;;;4973249;28;20194;-77
2023/09/23 10:23:22;;;;;;;5.17;1.60;;;15.60;99.90;;;;;;4976117;28;20177;-76
2023/09/23 10:25:50;;;;;;;5.03;1.43;;;15.50;99.90;;;;;;4975060;28;20600;-76
2023/09/23 10:28:24;;;;;;;4.47;1.40;;;15.50;99.90;;;;;;4972595;28;20170;-77
2023/09/23 10:31:01;;;;;;;3.73;1.27;;;15.50;99.90;;;;;;4975646;28;20249;-74
2023/09/23 10:33:27;;;;;;;5.57;1.60;;;15.50;99.90;;;;;;4973745;28;20249;-76
2023/09/23 10:35:59;;;;;;;5.67;1.53;;;15.50;99.90;;;;;;4974207;28;20181;-75
2023/09/23 10:38:34;;;;;;;6.17;2.03;;;15.50;99.90;;;;;;4974113;28;20813;-75
2023/09/23 10:41:01;;;;;;;5.00;1.37;;;15.60;99.90;;;;;;4981439;28;20173;-76
2023/09/23 10:43:27;;;;;;;6.57;1.50;;;15.70;99.90;;;;;;4994200;28;20181;-76
2023/09/23 10:45:54;;;;;;;3.70;1.53;;;15.70;99.90;;;;;;4994124;28;20173;-76
2023/09/23 10:48:20;;;;;;;3.40;1.40;;;15.70;99.90;;;;;;4993013;28;20169;-77
2023/09/23 10:50:46;;;;;;;4.90;1.50;;;15.70;99.90;;;;;;4973247;28;20190;-76
2023/09/23 10:53:13;;;;;;;8.37;2.00;;;15.70;99.90;;;;;;4966377;28;20199;-76
2023/09/23 10:55:41;;;;;;;4.23;1.30;;;15.80;99.90;;;;;;4956088;28;20182;-76
2023/09/23 10:58:08;;;;;;;6.80;1.10;;;15.90;96.00;;;;;;4954205;28;20278;-77
2023/09/23 11:00:37;;;;;;;5.53;1.27;;;15.80;99.90;;;;;;4970611;28;20594;-76
2023/09/23 11:03:16;;;;;;;3.33;1.13;;;16.00;99.90;;;;;;4973299;28;20673;-76
2023/09/23 11:05:43;;;;;;;4.33;1.17;;;16.00;99.90;;;;;;4973507;28;20174;-77
2023/09/23 11:08:11;;;;;;;5.43;1.30;;;16.00;99.90;;;;;;4972119;28;20185;-78
2023/09/23 11:10:38;;;;;;;3.37;1.23;;;16.00;99.90;;;;;;4957355;28;20528;-77
2023/09/23 11:13:05;;;;;;;2.77;1.30;;;16.00;99.90;;;;;;4974541;28;20194;-77
2023/09/23 11:15:31;;;;;;;6.73;1.33;;;16.00;99.90;;;;;;4974660;28;20519;-76
2023/09/23 11:17:57;;;;;;;4.10;1.00;;;16.00;99.90;;;;;;4974411;28;20180;-76
2023/09/23 11:20:30;;;;;;;3.97;1.33;;;16.00;99.90;;;;;;4972273;28;20182;-77
2023/09/23 11:23:03;;;;;;;4.50;1.20;;;16.00;99.90;;;;;;4970013;28;20295;-78
2023/09/23 11:25:36;;;;;;;3.40;1.10;;;16.00;99.90;;;;;;4954692;28;20185;-77
2023/09/23 11:28:02;;;;;;;5.50;1.40;;;16.10;99.90;;;;;;4953962;28;20183;-77
2023/09/23 11:30:29;;;;;;;5.23;1.23;;;16.10;99.90;;;;;;4959052;28;20265;-76
2023/09/23 11:32:56;;;;;;;3.53;1.30;;;16.10;99.90;;;;;;4973890;28;20198;-75
2023/09/23 11:35:22;;;;;;;3.67;1.43;;;16.20;99.90;;;;;;4973878;28;20171;-77
2023/09/23 11:37:48;;;;;;;3.47;1.20;;;16.40;99.90;;;;;;4973819;28;20197;-77
2023/09/23 11:40:17;;;;;;;5.97;1.30;;;16.10;99.90;;;;;;4971742;28;20642;-78
2023/09/23 11:42:42;;;;;;;2.43;1.10;;;16.30;99.90;;;;;;4973751;28;20198;-77
2023/09/23 11:45:12;;;;;;;4.00;1.10;;;16.30;99.90;;;;;;4973815;28;20197;-77
2023/09/23 11:47:38;;;;;;;2.83;1.30;;;16.30;99.90;;;;;;4971279;28;20202;-77
2023/09/23 11:50:06;;;;;;;2.40;1.00;;;16.30;99.90;;;;;;4973718;28;20170;-76
2023/09/23 11:52:34;;;;;;;6.73;1.20;;;16.40;99.90;;;;;;4972384;28;20200;-76
2023/09/23 11:55:00;;;;;;;3.97;1.10;;;16.40;99.90;;;;;;4973730;28;20170;-77
2023/09/23 11:57:26;;;;;;;3.17;1.00;;;16.30;99.90;;;;;;4972874;28;20604;-76
2023/09/23 11:59:52;;;;;;;5.87;1.40;;;16.30;99.90;;;;;;4973650;28;20178;-77
2023/09/23 12:02:21;;;;;;;4.90;1.17;;;16.20;99.90;;;;;;4973612;28;20677;-77
2023/09/23 12:04:47;;;;;;;3.77;1.13;;;16.20;99.90;;;;;;4973598;28;20174;-76
2023/09/23 12:07:17;;;;;;;3.90;0.97;;;16.20;99.90;;;;;;4972852;28;20205;-77
2023/09/23 12:09:43;;;;;;;2.00;1.00;;;16.30;99.90;;;;;;4984569;28;20264;-77
2023/09/23 12:12:12;;;;;;;5.63;1.30;;;16.40;99.90;;;;;;4991457;28;20285;-78
2023/09/23 12:14:42;;;;;;;3.63;1.13;;;16.40;99.90;;;;;;4993444;28;20170;-77
2023/09/23 12:17:14;;;;;;;3.03;1.03;;;16.50;99.90;;;;;;4986949;28;20180;-77
2023/09/23 12:19:40;;;;;;;5.33;1.03;;;16.40;99.90;;;;;;4954215;29;20214;-76
2023/09/23 12:22:06;;;;;;;2.97;0.93;;;16.40;99.90;;;;;;4954059;29;20187;-76
2023/09/23 12:24:31;;;;;;;1.83;1.03;;;16.50;99.90;;;;;;4955366;28;20179;-77
2023/09/23 12:26:58;;;;;;;3.10;1.00;;;16.50;99.90;;;;;;4952866;28;20238;-77
2023/09/23 12:29:24;;;;;;;5.50;1.30;;;16.70;99.90;;;;;;4971635;28;20265;-77
2023/09/23 12:31:49;;;;;;;4.13;1.13;;;16.70;99.90;;;;;;4971939;28;20230;-77
2023/09/23 12:34:15;;;;;;;4.63;1.07;;;16.90;99.90;;;;;;4973872;28;20182;-77
2023/09/23 12:36:40;;;;;;;3.57;1.00;;;16.90;99.90;;;;;;4973350;28;20596;-77
2023/09/23 12:39:06;;;;;;;4.37;1.30;;;17.00;99.90;;;;;;4972717;28;20634;-77
2023/09/23 12:41:32;;;;;;;5.40;1.20;;;17.00;99.90;;;;;;4976947;28;20693;-77
2023/09/23 12:43:57;;;;;;;6.97;1.50;;;17.00;99.90;;;;;;4977551;28;20182;-77
2023/09/23 12:46:23;;;;;;;2.57;0.93;;;16.80;99.90;;;;;;4976991;28;20276;-77
2023/09/23 12:48:49;;;;;;;3.80;1.30;;;17.00;99.90;;;;;;4976090;28;20190;-78